createdAt,value
2022-09-12T00:01:20.815Z,12.40
2022-09-12T00:03:49.369Z,12.40
2022-09-12T00:06:23.220Z,12.50
2022-09-12T00:08:51.799Z,12.40
2022-09-12T00:11:20.314Z,12.30
2022-09-12T00:13:48.810Z,12.30
2022-09-12T00:16:21.005Z,12.20
2022-09-12T00:18:49.228Z,12.30
2022-09-12T00:21:17.833Z,12.20
2022-09-12T00:23:46.232Z,12.20
2022-09-12T00:26:14.828Z,12.20
2022-09-12T00:28:43.514Z,12.20
2022-09-12T00:31:14.378Z,12.20
2022-09-12T00:33:44.932Z,12.20
2022-09-12T00:36:15.869Z,12.10
2022-09-12T00:38:44.438Z,12.10
2022-09-12T00:41:17.439Z,12.10
2022-09-12T00:43:47.877Z,12.10
2022-09-12T00:46:34.582Z,12.10
2022-09-12T00:49:11.217Z,12.10
2022-09-12T00:51:39.726Z,12.00
2022-09-12T00:54:13.555Z,12.00
2022-09-12T00:56:45.301Z,11.90
2022-09-12T00:59:15.929Z,11.90
2022-09-12T01:01:45.966Z,11.90
2022-09-12T01:04:15.926Z,11.80
2022-09-12T01:06:45.790Z,11.80
2022-09-12T01:09:18.257Z,11.80
2022-09-12T01:11:48.861Z,11.70
2022-09-12T01:14:18.803Z,11.70
2022-09-12T01:16:48.234Z,11.80
2022-09-12T01:19:38.986Z,11.80
2022-09-12T01:22:21.842Z,11.80
2022-09-12T01:25:06.790Z,11.80
2022-09-12T01:27:58.971Z,11.80
2022-09-12T01:30:48.644Z,11.80
2022-09-12T01:33:47.880Z,11.80
2022-09-12T01:36:31.037Z,11.70
2022-09-12T01:39:03.709Z,11.70
2022-09-12T01:41:43.638Z,11.70
2022-09-12T01:44:20.625Z,11.70
2022-09-12T01:46:56.219Z,11.60
2022-09-12T01:49:26.586Z,11.60
2022-09-12T01:52:00.034Z,11.60
2022-09-12T01:54:33.350Z,11.50
2022-09-12T01:57:05.315Z,11.50
2022-09-12T01:59:38.239Z,11.50
2022-09-12T02:02:13.688Z,11.60
2022-09-12T02:04:48.706Z,11.50
2022-09-12T02:07:21.476Z,11.40
2022-09-12T02:09:55.596Z,11.50
2022-09-12T02:12:30.725Z,11.50
2022-09-12T02:15:03.063Z,11.40
2022-09-12T02:17:36.505Z,11.50
2022-09-12T02:20:14.637Z,11.40
2022-09-12T02:22:51.679Z,11.40
2022-09-12T02:25:21.363Z,11.30
2022-09-12T02:27:53.135Z,11.30
2022-09-12T02:30:22.882Z,11.30
2022-09-12T02:33:02.137Z,11.30
2022-09-12T02:35:36.752Z,11.20
2022-09-12T02:38:08.616Z,11.20
2022-09-12T02:40:37.957Z,11.20
2022-09-12T02:43:07.484Z,11.20
2022-09-12T02:45:36.770Z,11.10
2022-09-12T02:48:13.342Z,11.20
2022-09-12T02:50:43.029Z,11.10
2022-09-12T02:53:12.434Z,11.10
2022-09-12T02:55:42.450Z,11.10
2022-09-12T02:58:15.531Z,11.10
2022-09-12T03:00:50.115Z,11.10
2022-09-12T03:03:43.329Z,11.00
2022-09-12T03:06:19.311Z,11.00
2022-09-12T03:09:01.738Z,10.90
2022-09-12T03:11:56.224Z,10.90
2022-09-12T03:14:41.401Z,11.00
2022-09-12T03:17:15.652Z,11.00
2022-09-12T03:19:54.626Z,10.90
2022-09-12T03:22:32.962Z,10.90
2022-09-12T03:25:11.732Z,10.90
2022-09-12T03:27:44.703Z,10.80
2022-09-12T03:30:13.737Z,10.90
2022-09-12T03:32:43.540Z,10.80
2022-09-12T03:35:14.476Z,10.80
2022-09-12T03:37:42.856Z,10.70
2022-09-12T03:40:13.036Z,10.70
2022-09-12T03:42:41.236Z,10.80
2022-09-12T03:45:10.592Z,10.80
2022-09-12T03:47:38.856Z,10.80
2022-09-12T03:50:07.888Z,10.80
2022-09-12T03:52:38.089Z,10.80
2022-09-12T03:55:07.073Z,10.80
2022-09-12T03:57:35.199Z,10.80
2022-09-12T04:00:03.370Z,10.80
2022-09-12T04:02:31.618Z,10.80
2022-09-12T04:04:59.695Z,10.80
2022-09-12T04:07:28.024Z,10.80
2022-09-12T04:09:57.444Z,10.80
2022-09-12T04:12:25.564Z,10.80
2022-09-12T04:14:53.676Z,10.80
2022-09-12T04:17:21.735Z,10.80
2022-09-12T04:19:49.773Z,10.80
2022-09-12T04:22:17.832Z,10.80
2022-09-12T04:24:45.914Z,10.80
2022-09-12T04:27:15.406Z,10.70
2022-09-12T04:29:43.750Z,10.70
2022-09-12T04:32:11.738Z,10.70
2022-09-12T04:34:40.098Z,10.70
2022-09-12T04:37:08.240Z,10.70
2022-09-12T04:39:36.222Z,10.70
2022-09-12T04:42:04.807Z,10.60
2022-09-12T04:44:34.408Z,10.70
2022-09-12T04:47:03.373Z,10.60
2022-09-12T04:49:31.355Z,10.60
2022-09-12T04:51:59.304Z,10.50
2022-09-12T04:54:27.736Z,10.50
2022-09-12T04:56:56.009Z,10.60
2022-09-12T04:59:24.289Z,10.60
2022-09-12T05:01:54.327Z,10.60
2022-09-12T05:04:22.755Z,10.60
2022-09-12T05:06:50.875Z,10.50
2022-09-12T05:09:18.978Z,10.50
2022-09-12T05:12:03.781Z,10.50
2022-09-12T05:14:33.528Z,10.50
2022-09-12T05:17:03.520Z,10.50
2022-09-12T05:19:32.200Z,10.50
2022-09-12T05:22:00.464Z,10.50
2022-09-12T05:24:28.802Z,10.60
2022-09-12T05:26:56.929Z,10.60
2022-09-12T05:29:25.645Z,10.70
2022-09-12T05:31:54.161Z,10.70
2022-09-12T05:34:24.295Z,10.80
2022-09-12T05:36:52.401Z,10.90
2022-09-12T05:39:20.520Z,10.90
2022-09-12T05:41:48.712Z,11.00
2022-09-12T05:44:17.757Z,11.10
2022-09-12T05:46:48.570Z,11.20
2022-09-12T05:49:16.800Z,11.40
2022-09-12T05:51:47.349Z,11.50
2022-09-12T05:54:20.598Z,11.60
2022-09-12T05:59:26.111Z,11.90
2022-09-12T06:01:54.123Z,12.00
2022-09-12T06:04:35.480Z,12.10
2022-09-12T06:07:14.689Z,12.20
2022-09-12T06:09:47.000Z,12.30
2022-09-12T06:12:15.100Z,12.40
2022-09-12T06:14:48.114Z,12.50
2022-09-12T06:17:19.929Z,12.60
2022-09-12T06:19:47.893Z,12.80
2022-09-12T06:22:18.837Z,12.80
2022-09-12T06:24:46.827Z,13.00
2022-09-12T06:27:15.639Z,13.10
2022-09-12T06:29:44.477Z,13.30
2022-09-12T06:32:13.141Z,13.30
2022-09-12T06:34:42.018Z,13.40
2022-09-12T06:37:10.013Z,13.40
2022-09-12T06:39:41.013Z,13.40
2022-09-12T06:42:12.713Z,13.40
2022-09-12T06:44:41.299Z,13.50
2022-09-12T06:47:10.150Z,13.60
2022-09-12T06:49:39.863Z,13.80
2022-09-12T06:52:23.215Z,13.90
2022-09-12T06:54:54.812Z,13.90
2022-09-12T06:57:37.219Z,14.00
2022-09-12T07:00:15.948Z,14.00
2022-09-12T07:02:46.244Z,14.20
2022-09-12T07:05:17.274Z,14.30
2022-09-12T07:07:49.417Z,14.40
2022-09-12T07:10:32.565Z,14.50
2022-09-12T07:13:00.466Z,14.70
2022-09-12T07:15:28.383Z,14.80
2022-09-12T07:17:56.343Z,14.80
2022-09-12T07:20:24.256Z,14.80
2022-09-12T07:22:52.357Z,14.90
2022-09-12T07:25:21.619Z,14.90
2022-09-12T07:27:51.309Z,15.00
2022-09-12T07:30:19.424Z,14.90
2022-09-12T07:32:47.426Z,15.00
2022-09-12T07:35:15.560Z,15.00
2022-09-12T07:37:43.585Z,15.10
2022-09-12T07:40:12.215Z,15.10
2022-09-12T07:42:41.558Z,15.20
2022-09-12T07:45:11.206Z,15.30
2022-09-12T07:47:41.014Z,15.40
2022-09-12T07:50:09.618Z,15.60
2022-09-12T07:52:37.511Z,15.70
2022-09-12T07:55:06.058Z,15.90
2022-09-12T07:57:33.920Z,16.00
2022-09-12T08:00:04.285Z,16.10
2022-09-12T08:02:32.355Z,16.20
2022-09-12T08:05:00.404Z,16.30
2022-09-12T08:07:28.393Z,16.40
2022-09-12T08:09:56.786Z,16.40
2022-09-12T08:12:24.753Z,16.50
2022-09-12T08:14:52.689Z,16.70
2022-09-12T08:17:22.058Z,16.80
2022-09-12T08:19:49.982Z,16.90
2022-09-12T08:22:20.003Z,17.00
2022-09-12T08:24:47.967Z,17.10
2022-09-12T08:27:16.312Z,17.10
2022-09-12T08:29:44.309Z,17.10
2022-09-12T08:32:12.261Z,17.20
2022-09-12T08:34:41.598Z,17.30
2022-09-12T08:37:09.566Z,17.50
2022-09-12T08:39:37.584Z,17.50
2022-09-12T08:42:08.290Z,17.50
2022-09-12T08:45:12.009Z,17.70
2022-09-12T08:47:43.048Z,17.80
2022-09-12T08:50:18.819Z,17.80
2022-09-12T08:52:58.762Z,17.90
2022-09-12T08:55:32.188Z,18.00
2022-09-12T08:58:01.396Z,18.00
2022-09-12T09:00:40.380Z,18.10
2022-09-12T09:03:32.269Z,18.10
2022-09-12T09:06:08.214Z,18.20
2022-09-12T09:08:48.931Z,18.30
2022-09-12T09:11:33.278Z,18.50
2022-09-12T09:14:33.043Z,18.70
2022-09-12T09:17:01.774Z,18.80
2022-09-12T09:19:33.755Z,19.00
2022-09-12T09:22:08.195Z,19.10
2022-09-12T09:24:39.728Z,19.30
2022-09-12T09:27:36.793Z,19.50
2022-09-12T09:30:03.551Z,19.50
2022-09-12T09:32:35.456Z,19.50
2022-09-12T09:35:04.380Z,19.60
2022-09-12T09:37:39.974Z,19.50
2022-09-12T09:40:19.044Z,19.60
2022-09-12T09:42:57.653Z,19.70
2022-09-12T09:45:29.078Z,19.80
2022-09-12T09:48:04.467Z,19.80
2022-09-12T09:50:32.810Z,19.80
2022-09-12T09:53:04.155Z,19.80
2022-09-12T09:55:39.588Z,19.90
2022-09-12T09:58:07.514Z,20.00
2022-09-12T10:00:37.173Z,20.10
2022-09-12T10:03:25.636Z,20.30
2022-09-12T10:05:54.996Z,20.40
2022-09-12T10:08:27.233Z,20.50
2022-09-12T10:10:57.376Z,20.60
2022-09-12T10:13:36.543Z,20.70
2022-09-12T10:16:07.648Z,20.60
2022-09-12T10:18:41.754Z,20.60
2022-09-12T10:21:32.537Z,20.70
2022-09-12T10:24:22.894Z,21.00
2022-09-12T10:26:56.915Z,21.20
2022-09-12T10:29:29.779Z,21.50
2022-09-12T10:32:00.699Z,21.70
2022-09-12T10:34:33.435Z,21.80
2022-09-12T10:37:05.157Z,22.00
2022-09-12T10:39:36.217Z,22.10
2022-09-12T10:42:05.888Z,22.10
2022-09-12T10:44:35.773Z,22.20
2022-09-12T10:47:22.637Z,22.20
2022-09-12T10:49:50.903Z,22.30
2022-09-12T10:52:23.546Z,22.20
2022-09-12T10:54:53.124Z,22.20
2022-09-12T10:57:44.036Z,22.30
2022-09-12T11:00:17.832Z,22.40
2022-09-12T11:02:53.139Z,22.40
2022-09-12T11:05:39.692Z,22.50
2022-09-12T11:08:16.752Z,22.50
2022-09-12T11:10:56.977Z,22.60
2022-09-12T11:13:39.701Z,22.60
2022-09-12T11:16:19.893Z,22.80
2022-09-12T11:19:12.125Z,22.90
2022-09-12T11:21:53.553Z,23.00
2022-09-12T11:24:39.954Z,23.10
2022-09-12T11:27:26.684Z,23.10
2022-09-12T11:29:59.755Z,23.10
2022-09-12T11:33:05.619Z,23.20
2022-09-12T11:35:34.660Z,23.20
2022-09-12T11:38:38.780Z,23.20
2022-09-12T11:41:10.689Z,23.30
2022-09-12T11:43:44.597Z,23.50
2022-09-12T11:46:19.195Z,23.70
2022-09-12T11:48:52.687Z,23.70
2022-09-12T11:51:24.290Z,23.80
2022-09-12T11:54:03.743Z,23.80
2022-09-12T11:56:32.015Z,23.80
2022-09-12T11:59:06.943Z,23.80
2022-09-12T12:01:45.082Z,23.80
2022-09-12T12:04:21.727Z,23.90
2022-09-12T12:06:55.031Z,24.10
2022-09-12T12:09:23.496Z,24.10
2022-09-12T12:11:57.527Z,24.10
2022-09-12T12:14:33.880Z,24.10
2022-09-12T12:17:01.949Z,24.00
2022-09-12T12:19:35.549Z,24.00
2022-09-12T12:22:18.090Z,24.10
2022-09-12T12:25:02.477Z,24.20
2022-09-12T12:27:49.843Z,24.30
2022-09-12T12:31:05.699Z,24.40
2022-09-12T12:34:10.552Z,24.30
2022-09-12T12:36:43.959Z,24.40
2022-09-12T12:39:45.444Z,24.30
2022-09-12T12:43:05.285Z,24.30
2022-09-12T12:46:12.724Z,24.30
2022-09-12T12:49:02.973Z,24.40
2022-09-12T12:51:56.017Z,24.50
2022-09-12T12:57:18.806Z,24.70
2022-09-12T12:59:52.972Z,24.80
2022-09-12T13:02:26.286Z,24.90
2022-09-12T13:04:55.835Z,25.00
2022-09-12T13:07:33.889Z,25.00
2022-09-12T13:10:03.484Z,25.00
2022-09-12T13:12:34.660Z,24.90
2022-09-12T13:15:03.496Z,24.90
2022-09-12T13:17:37.086Z,24.90
2022-09-12T13:20:30.473Z,24.80
2022-09-12T13:22:59.120Z,24.80
2022-09-12T13:25:30.705Z,24.80
2022-09-12T13:28:04.897Z,25.00
2022-09-12T13:30:35.098Z,25.00
2022-09-12T13:33:25.698Z,25.10
2022-09-12T13:36:35.043Z,25.20
2022-09-12T13:39:14.170Z,25.30
2022-09-12T13:42:05.104Z,25.30
2022-09-12T13:44:45.543Z,25.00
2022-09-12T13:47:17.691Z,24.90
2022-09-12T13:49:47.619Z,24.80
2022-09-12T13:52:22.702Z,25.00
2022-09-12T13:54:54.223Z,24.90
2022-09-12T13:57:34.238Z,24.90
2022-09-12T14:00:08.780Z,24.80
2022-09-12T14:02:38.323Z,24.80
2022-09-12T14:05:20.057Z,24.80
2022-09-12T14:07:56.131Z,24.90
2022-09-12T14:10:30.200Z,25.00
2022-09-12T14:12:59.119Z,25.00
2022-09-12T14:15:29.644Z,25.00
2022-09-12T14:18:01.331Z,25.00
2022-09-12T14:20:32.871Z,24.90
2022-09-12T14:23:03.351Z,24.90
2022-09-12T14:25:37.239Z,24.80
2022-09-12T14:28:06.081Z,24.80
2022-09-12T14:30:36.404Z,24.80
2022-09-12T14:33:07.230Z,24.80
2022-09-12T14:35:40.257Z,24.80
2022-09-12T14:38:23.370Z,24.60
2022-09-12T14:40:54.028Z,24.70
2022-09-12T14:43:28.765Z,24.70
2022-09-12T14:45:59.524Z,24.70
2022-09-12T14:48:31.049Z,24.60
2022-09-12T14:51:01.267Z,24.50
2022-09-12T14:53:34.875Z,24.50
2022-09-12T14:56:11.213Z,24.50
2022-09-12T14:58:39.507Z,24.50
2022-09-12T15:01:24.015Z,24.40
2022-09-12T15:03:55.237Z,24.50
2022-09-12T15:06:31.189Z,24.60
2022-09-12T15:09:03.952Z,24.60
2022-09-12T15:11:33.487Z,24.50
2022-09-12T15:14:07.899Z,24.50
2022-09-12T15:16:35.817Z,24.40
2022-09-12T15:19:03.756Z,24.30
2022-09-12T15:21:33.257Z,24.40
2022-09-12T15:24:25.185Z,24.20
2022-09-12T15:29:22.173Z,25.30
2022-09-12T15:34:28.082Z,26.50
2022-09-12T15:36:57.391Z,26.90
2022-09-12T15:39:25.374Z,27.00
2022-09-12T15:41:54.012Z,26.90
2022-09-12T15:44:23.588Z,26.70
2022-09-12T15:46:51.472Z,26.40
2022-09-12T15:49:19.465Z,25.90
2022-09-12T15:51:47.549Z,25.50
2022-09-12T15:54:19.440Z,25.10
2022-09-12T15:56:47.449Z,24.80
2022-09-12T15:59:15.453Z,24.50
2022-09-12T16:01:43.547Z,24.20
2022-09-12T16:04:23.142Z,24.10
2022-09-12T16:06:51.124Z,23.90
2022-09-12T16:09:20.688Z,23.80
2022-09-12T16:11:48.960Z,23.60
2022-09-12T16:14:18.735Z,23.50
2022-09-12T16:16:53.744Z,23.50
2022-09-12T16:19:22.093Z,23.50
2022-09-12T16:21:50.723Z,23.30
2022-09-12T16:24:20.150Z,23.20
2022-09-12T16:26:48.280Z,23.10
2022-09-12T16:29:16.592Z,23.10
2022-09-12T16:31:44.992Z,23.10
2022-09-12T16:34:13.992Z,23.10
2022-09-12T16:36:41.920Z,23.00
2022-09-12T16:39:09.872Z,22.90
2022-09-12T16:41:42.017Z,22.90
2022-09-12T16:44:10.304Z,22.80
2022-09-12T16:46:38.327Z,22.70
2022-09-12T16:49:07.061Z,22.70
2022-09-12T16:51:36.742Z,22.60
2022-09-12T16:54:05.207Z,22.50
2022-09-12T16:56:33.157Z,22.30
2022-09-12T16:59:04.071Z,22.20
2022-09-12T17:01:32.145Z,22.10
2022-09-12T17:04:00.527Z,21.90
2022-09-12T17:06:29.449Z,21.90
2022-09-12T17:09:02.676Z,21.80
2022-09-12T17:11:33.914Z,21.70
2022-09-12T17:14:06.922Z,21.50
2022-09-12T17:16:36.661Z,21.40
2022-09-12T17:19:05.730Z,21.20
2022-09-12T17:21:34.184Z,21.10
2022-09-12T17:24:03.333Z,20.90
2022-09-12T17:26:31.543Z,20.80
2022-09-12T17:28:59.570Z,20.70
2022-09-12T17:31:29.026Z,20.50
2022-09-12T17:33:58.515Z,20.40
2022-09-12T17:36:27.340Z,20.30
2022-09-12T17:38:55.572Z,20.10
2022-09-12T17:41:25.928Z,20.10
2022-09-12T17:43:55.644Z,20.00
2022-09-12T17:46:25.336Z,19.80
2022-09-12T17:48:56.337Z,19.70
2022-09-12T17:51:25.799Z,19.50
2022-09-12T17:54:00.173Z,19.40
2022-09-12T17:56:30.037Z,19.30
2022-09-12T17:58:59.124Z,19.20
2022-09-12T18:01:45.621Z,19.10
2022-09-12T18:04:15.520Z,19.00
2022-09-12T18:06:47.948Z,18.80
2022-09-12T18:09:18.357Z,18.70
2022-09-12T18:11:46.866Z,18.60
2022-09-12T18:14:14.978Z,18.50
2022-09-12T18:16:43.123Z,18.40
2022-09-12T18:19:11.547Z,18.30
2022-09-12T18:21:41.339Z,18.20
2022-09-12T18:24:11.184Z,18.20
2022-09-12T18:26:39.587Z,18.10
2022-09-12T18:29:08.152Z,18.00
2022-09-12T18:31:36.948Z,17.90
2022-09-12T18:34:06.131Z,17.90
2022-09-12T18:36:34.100Z,17.80
2022-09-12T18:39:03.485Z,17.80
2022-09-12T18:41:31.457Z,17.80
2022-09-12T18:44:01.410Z,17.70
2022-09-12T18:46:31.175Z,17.60
2022-09-12T18:49:00.010Z,17.60
2022-09-12T18:51:31.399Z,17.60
2022-09-12T18:54:01.044Z,17.50
2022-09-12T18:56:33.201Z,17.40
2022-09-12T18:59:03.615Z,17.40
2022-09-12T19:01:33.275Z,17.30
2022-09-12T19:04:04.657Z,17.30
2022-09-12T19:06:34.532Z,17.20
2022-09-12T19:09:07.355Z,17.20
2022-09-12T19:11:38.885Z,17.10
2022-09-12T19:14:07.534Z,17.10
2022-09-12T19:16:36.529Z,17.00
2022-09-12T19:19:05.736Z,17.00
2022-09-12T19:21:34.626Z,16.90
2022-09-12T19:24:04.235Z,16.80
2022-09-12T19:26:33.036Z,16.80
2022-09-12T19:29:03.481Z,16.80
2022-09-12T19:31:32.052Z,16.70
2022-09-12T19:34:01.952Z,16.70
2022-09-12T19:36:47.148Z,16.60
2022-09-12T19:39:16.827Z,16.60
2022-09-12T19:41:44.970Z,16.60
2022-09-12T19:44:14.745Z,16.60
2022-09-12T19:46:43.430Z,16.60
2022-09-12T19:49:13.013Z,16.60
2022-09-12T19:51:41.830Z,16.60
2022-09-12T19:54:10.170Z,16.60
2022-09-12T19:56:38.215Z,16.60
2022-09-12T19:59:06.136Z,16.60
2022-09-12T20:01:37.145Z,16.60
2022-09-12T20:04:06.493Z,16.50
2022-09-12T20:06:34.628Z,16.40
2022-09-12T20:09:02.652Z,16.40
2022-09-12T20:11:31.260Z,16.40
2022-09-12T20:13:59.160Z,16.40
2022-09-12T20:16:29.331Z,16.40
2022-09-12T20:19:00.629Z,16.40
2022-09-12T20:21:32.845Z,16.40
2022-09-12T20:24:02.253Z,16.40
2022-09-12T20:26:30.638Z,16.40
2022-09-12T20:28:58.539Z,16.40
2022-09-12T20:31:26.667Z,16.40
2022-09-12T20:33:55.843Z,16.40
2022-09-12T20:36:25.416Z,16.30
2022-09-12T20:38:56.749Z,16.30
2022-09-12T20:41:25.745Z,16.30
2022-09-12T20:43:55.027Z,16.20
2022-09-12T20:46:23.786Z,16.10
2022-09-12T20:48:52.226Z,16.00
2022-09-12T20:51:20.686Z,16.00
2022-09-12T20:53:54.445Z,15.90
2022-09-12T20:56:23.003Z,15.90
2022-09-12T20:58:50.971Z,15.90
2022-09-12T21:01:19.074Z,15.80
2022-09-12T21:03:47.754Z,15.70
2022-09-12T21:06:17.353Z,15.70
2022-09-12T21:08:46.456Z,15.60
2022-09-12T21:11:16.496Z,15.60
2022-09-12T21:13:44.590Z,15.50
2022-09-12T21:16:14.239Z,15.50
2022-09-12T21:18:42.771Z,15.50
2022-09-12T21:21:11.877Z,15.40
2022-09-12T21:23:39.860Z,15.40
2022-09-12T21:26:08.770Z,15.40
2022-09-12T21:28:38.154Z,15.40
2022-09-12T21:31:06.832Z,15.40
2022-09-12T21:33:34.835Z,15.40
2022-09-12T21:36:04.340Z,15.40
2022-09-12T21:38:33.240Z,15.40
2022-09-12T21:41:05.655Z,15.40
2022-09-12T21:43:33.677Z,15.40
2022-09-12T21:46:03.341Z,15.40
2022-09-12T21:48:31.918Z,15.40
2022-09-12T21:50:59.994Z,15.40
2022-09-12T21:53:28.518Z,15.50
2022-09-12T21:55:56.515Z,15.50
2022-09-12T21:58:24.427Z,15.40
2022-09-12T22:00:52.392Z,15.40
2022-09-12T22:03:22.039Z,15.40
2022-09-12T22:05:52.539Z,15.40
2022-09-12T22:08:20.432Z,15.40
2022-09-12T22:10:48.369Z,15.40
2022-09-12T22:13:16.317Z,15.40
2022-09-12T22:15:45.319Z,15.40
2022-09-12T22:18:13.283Z,15.40
2022-09-12T22:20:42.610Z,15.40
2022-09-12T22:23:30.294Z,15.50
2022-09-12T22:25:58.622Z,15.50
2022-09-12T22:28:26.690Z,15.50
2022-09-12T22:30:54.909Z,15.50
2022-09-12T22:33:22.995Z,15.50
2022-09-12T22:35:52.316Z,15.50
2022-09-12T22:38:20.403Z,15.50
2022-09-12T22:40:48.343Z,15.50
2022-09-12T22:43:16.706Z,15.60
2022-09-12T22:45:44.657Z,15.60
2022-09-12T22:48:12.593Z,15.60
2022-09-12T22:50:40.514Z,15.70
2022-09-12T22:53:09.973Z,15.60
2022-09-12T22:55:38.282Z,15.60
2022-09-12T22:58:06.210Z,15.70
2022-09-12T23:00:34.521Z,15.70
2022-09-12T23:03:02.525Z,15.70
2022-09-12T23:05:30.487Z,15.70
2022-09-12T23:07:58.939Z,15.80
2022-09-12T23:10:28.279Z,15.90
2022-09-12T23:12:56.515Z,15.90
2022-09-12T23:15:24.425Z,15.90
2022-09-12T23:17:52.368Z,15.90
2022-09-12T23:20:20.306Z,15.90
2022-09-12T23:22:48.199Z,15.90
2022-09-12T23:25:16.192Z,16.00
2022-09-12T23:27:45.562Z,16.00
2022-09-12T23:30:13.631Z,15.90
2022-09-12T23:32:41.534Z,15.90
2022-09-12T23:35:09.486Z,16.00
2022-09-12T23:37:37.599Z,16.00
2022-09-12T23:40:06.126Z,16.00
2022-09-12T23:42:34.147Z,16.00
2022-09-12T23:45:03.467Z,16.10
2022-09-12T23:47:31.401Z,16.10
2022-09-12T23:49:59.364Z,16.20
2022-09-12T23:52:27.289Z,16.30
2022-09-12T23:54:55.273Z,16.40
2022-09-12T23:57:23.301Z,16.40
2022-09-12T23:59:51.211Z,16.50
